<?xml version="1.0" encoding="utf-8"?>
<gpx xmlns:xsi="http://www.w3.org/2001/XMLSchema-instance" xmlns:xsd="http://www.w3.org/2001/XMLSchema" version="1.1" creator="Shapelink.com" xmlns="http://www.topografix.com/GPX/1/1" xmlns:gpxtpx="http://www.garmin.com/xmlschemas/TrackPointExtension/v1">
  <metadata>
    <name>Laufen 7.00 km, 2011-03-20</name>
    <desc></desc>
    <author><name>Jessica Ternander</name></author> 
    <time>2011-03-20T14:21:01Z</time>
  </metadata>
  <trk>
    <name>Laufen 7.00 km, 2011-03-20</name>
    <trkseg>
      <trkpt lat="59.2993287" lon="18.5073521">
        <ele>25.1317</ele>
        <time>2011-03-20T14:21:01Z</time>
      </trkpt>
      <trkpt lat="59.2993406" lon="18.5072716">
        <ele>24.651</ele>
        <time>2011-03-20T14:21:03Z</time>
      </trkpt>
      <trkpt lat="59.2993301" lon="18.5070699">
        <ele>24.1703</ele>
        <time>2011-03-20T14:21:08Z</time>
      </trkpt>
      <trkpt lat="59.2993027" lon="18.5069056">
        <ele>25.1317</ele>
        <time>2011-03-20T14:21:12Z</time>
      </trkpt>
      <trkpt lat="59.2992888" lon="18.5067103">
        <ele>25.6123</ele>
        <time>2011-03-20T14:21:16Z</time>
      </trkpt>
      <trkpt lat="59.2992825" lon="18.5066597">
        <ele>25.6123</ele>
        <time>2011-03-20T14:21:17Z</time>
      </trkpt>
      <trkpt lat="59.2992552" lon="18.5063888">
        <ele>26.0929</ele>
        <time>2011-03-20T14:21:23Z</time>
      </trkpt>
      <trkpt lat="59.2992452" lon="18.5061733">
        <ele>26.5736</ele>
        <time>2011-03-20T14:21:28Z</time>
      </trkpt>
      <trkpt lat="59.2992206" lon="18.5059867">
        <ele>26.0929</ele>
        <time>2011-03-20T14:21:32Z</time>
      </trkpt>
      <trkpt lat="59.2992023" lon="18.5057634">
        <ele>26.0929</ele>
        <time>2011-03-20T14:21:37Z</time>
      </trkpt>
      <trkpt lat="59.2991847" lon="18.5055267">
        <ele>26.0929</ele>
        <time>2011-03-20T14:21:42Z</time>
      </trkpt>
      <trkpt lat="59.2992245" lon="18.5053212">
        <ele>27.0543</ele>
        <time>2011-03-20T14:21:47Z</time>
      </trkpt>
      <trkpt lat="59.2993249" lon="18.5052146">
        <ele>27.0543</ele>
        <time>2011-03-20T14:21:52Z</time>
      </trkpt>
      <trkpt lat="59.299413" lon="18.5050834">
        <ele>27.0543</ele>
        <time>2011-03-20T14:21:57Z</time>
      </trkpt>
      <trkpt lat="59.2995074" lon="18.5049051">
        <ele>28.4962</ele>
        <time>2011-03-20T14:22:03Z</time>
      </trkpt>
      <trkpt lat="59.2995717" lon="18.5046715">
        <ele>30.4188</ele>
        <time>2011-03-20T14:22:09Z</time>
      </trkpt>
      <trkpt lat="59.2996132" lon="18.5044799">
        <ele>31.8607</ele>
        <time>2011-03-20T14:22:14Z</time>
      </trkpt>
      <trkpt lat="59.2996559" lon="18.5043225">
        <ele>32.8223</ele>
        <time>2011-03-20T14:22:18Z</time>
      </trkpt>
      <trkpt lat="59.2997111" lon="18.5041189">
        <ele>33.7834</ele>
        <time>2011-03-20T14:22:23Z</time>
      </trkpt>
      <trkpt lat="59.2997586" lon="18.5039107">
        <ele>33.7834</ele>
        <time>2011-03-20T14:22:28Z</time>
      </trkpt>
      <trkpt lat="59.2998177" lon="18.5037172">
        <ele>34.7449</ele>
        <time>2011-03-20T14:22:33Z</time>
      </trkpt>
      <trkpt lat="59.2998778" lon="18.5034732">
        <ele>33.7834</ele>
        <time>2011-03-20T14:22:39Z</time>
      </trkpt>
      <trkpt lat="59.2998999" lon="18.5034056">
        <ele>33.7834</ele>
        <time>2011-03-20T14:22:41Z</time>
      </trkpt>
      <trkpt lat="59.2999618" lon="18.5032298">
        <ele>34.7449</ele>
        <time>2011-03-20T14:22:46Z</time>
      </trkpt>
      <trkpt lat="59.3000291" lon="18.5030303">
        <ele>32.8223</ele>
        <time>2011-03-20T14:22:52Z</time>
      </trkpt>
      <trkpt lat="59.3001092" lon="18.5028523">
        <ele>32.8223</ele>
        <time>2011-03-20T14:22:57Z</time>
      </trkpt>
      <trkpt lat="59.3001647" lon="18.5026426">
        <ele>33.3029</ele>
        <time>2011-03-20T14:23:02Z</time>
      </trkpt>
      <trkpt lat="59.3002026" lon="18.502422">
        <ele>35.7061</ele>
        <time>2011-03-20T14:23:07Z</time>
      </trkpt>
      <trkpt lat="59.3002393" lon="18.5022101">
        <ele>35.7061</ele>
        <time>2011-03-20T14:23:12Z</time>
      </trkpt>
      <trkpt lat="59.3002901" lon="18.5020095">
        <ele>36.1868</ele>
        <time>2011-03-20T14:23:17Z</time>
      </trkpt>
      <trkpt lat="59.300302" lon="18.5019733">
        <ele>35.7061</ele>
        <time>2011-03-20T14:23:18Z</time>
      </trkpt>
      <trkpt lat="59.300339" lon="18.5017427">
        <ele>34.7449</ele>
        <time>2011-03-20T14:23:24Z</time>
      </trkpt>
      <trkpt lat="59.300342" lon="18.5017108">
        <ele>34.2642</ele>
        <time>2011-03-20T14:23:25Z</time>
      </trkpt>
      <trkpt lat="59.3003653" lon="18.5014812">
        <ele>31.8607</ele>
        <time>2011-03-20T14:23:31Z</time>
      </trkpt>
      <trkpt lat="59.3004103" lon="18.5013033">
        <ele>30.8995</ele>
        <time>2011-03-20T14:23:36Z</time>
      </trkpt>
      <trkpt lat="59.3004495" lon="18.5011289">
        <ele>29.4575</ele>
        <time>2011-03-20T14:23:41Z</time>
      </trkpt>
      <trkpt lat="59.3004808" lon="18.5009264">
        <ele>28.4962</ele>
        <time>2011-03-20T14:23:46Z</time>
      </trkpt>
      <trkpt lat="59.3005262" lon="18.5007108">
        <ele>27.0543</ele>
        <time>2011-03-20T14:23:52Z</time>
      </trkpt>
      <trkpt lat="59.3005933" lon="18.5004182">
        <ele>26.5736</ele>
        <time>2011-03-20T14:24:00Z</time>
      </trkpt>
      <trkpt lat="59.3006265" lon="18.500106">
        <ele>28.9769</ele>
        <time>2011-03-20T14:24:07Z</time>
      </trkpt>
      <trkpt lat="59.3006653" lon="18.4998401">
        <ele>28.9769</ele>
        <time>2011-03-20T14:24:13Z</time>
      </trkpt>
      <trkpt lat="59.300704" lon="18.4996293">
        <ele>29.4575</ele>
        <time>2011-03-20T14:24:18Z</time>
      </trkpt>
      <trkpt lat="59.3007388" lon="18.4994677">
        <ele>30.8995</ele>
        <time>2011-03-20T14:24:22Z</time>
      </trkpt>
      <trkpt lat="59.300761" lon="18.4993079">
        <ele>31.3801</ele>
        <time>2011-03-20T14:24:26Z</time>
      </trkpt>
      <trkpt lat="59.3007686" lon="18.4992195">
        <ele>32.3416</ele>
        <time>2011-03-20T14:24:28Z</time>
      </trkpt>
      <trkpt lat="59.3008116" lon="18.4989175">
        <ele>31.8607</ele>
        <time>2011-03-20T14:24:35Z</time>
      </trkpt>
      <trkpt lat="59.3008501" lon="18.4986886">
        <ele>29.4575</ele>
        <time>2011-03-20T14:24:41Z</time>
      </trkpt>
      <trkpt lat="59.3008785" lon="18.4984403">
        <ele>28.9769</ele>
        <time>2011-03-20T14:24:47Z</time>
      </trkpt>
      <trkpt lat="59.3009198" lon="18.4982289">
        <ele>28.9769</ele>
        <time>2011-03-20T14:24:52Z</time>
      </trkpt>
      <trkpt lat="59.3009631" lon="18.4980634">
        <ele>29.4575</ele>
        <time>2011-03-20T14:24:56Z</time>
      </trkpt>
      <trkpt lat="59.3010352" lon="18.4978887">
        <ele>28.4962</ele>
        <time>2011-03-20T14:25:01Z</time>
      </trkpt>
      <trkpt lat="59.3011304" lon="18.4977701">
        <ele>27.5349</ele>
        <time>2011-03-20T14:25:06Z</time>
      </trkpt>
      <trkpt lat="59.3012138" lon="18.4976604">
        <ele>27.0543</ele>
        <time>2011-03-20T14:25:10Z</time>
      </trkpt>
      <trkpt lat="59.3013168" lon="18.497509">
        <ele>26.0929</ele>
        <time>2011-03-20T14:25:15Z</time>
      </trkpt>
      <trkpt lat="59.3013966" lon="18.4974116">
        <ele>26.0929</ele>
        <time>2011-03-20T14:25:19Z</time>
      </trkpt>
      <trkpt lat="59.3014785" lon="18.4975318">
        <ele>23.209</ele>
        <time>2011-03-20T14:25:23Z</time>
      </trkpt>
      <trkpt lat="59.3015338" lon="18.4977132">
        <ele>21.767</ele>
        <time>2011-03-20T14:25:27Z</time>
      </trkpt>
      <trkpt lat="59.3016074" lon="18.4979161">
        <ele>19.3638</ele>
        <time>2011-03-20T14:25:32Z</time>
      </trkpt>
      <trkpt lat="59.3016648" lon="18.498085">
        <ele>17.4412</ele>
        <time>2011-03-20T14:25:37Z</time>
      </trkpt>
      <trkpt lat="59.3016851" lon="18.498182">
        <ele>16.4797</ele>
        <time>2011-03-20T14:25:40Z</time>
      </trkpt>
      <trkpt lat="59.3017421" lon="18.4984389">
        <ele>17.4412</ele>
        <time>2011-03-20T14:25:46Z</time>
      </trkpt>
      <trkpt lat="59.3017588" lon="18.4984724">
        <ele>17.9218</ele>
        <time>2011-03-20T14:25:47Z</time>
      </trkpt>
      <trkpt lat="59.3018218" lon="18.4987471">
        <ele>17.4412</ele>
        <time>2011-03-20T14:25:53Z</time>
      </trkpt>
      <trkpt lat="59.3018266" lon="18.4989612">
        <ele>17.4412</ele>
        <time>2011-03-20T14:25:58Z</time>
      </trkpt>
      <trkpt lat="59.3018922" lon="18.4992382">
        <ele>16.9604</ele>
        <time>2011-03-20T14:26:05Z</time>
      </trkpt>
      <trkpt lat="59.301939" lon="18.4993939">
        <ele>16.4797</ele>
        <time>2011-03-20T14:26:09Z</time>
      </trkpt>
      <trkpt lat="59.301997" lon="18.4996107">
        <ele>17.4412</ele>
        <time>2011-03-20T14:26:14Z</time>
      </trkpt>
      <trkpt lat="59.3020617" lon="18.4998306">
        <ele>15.999</ele>
        <time>2011-03-20T14:26:19Z</time>
      </trkpt>
      <trkpt lat="59.3020923" lon="18.499995">
        <ele>15.0377</ele>
        <time>2011-03-20T14:26:23Z</time>
      </trkpt>
      <trkpt lat="59.3021534" lon="18.5001468">
        <ele>14.557</ele>
        <time>2011-03-20T14:26:28Z</time>
      </trkpt>
      <trkpt lat="59.3022294" lon="18.5003935">
        <ele>15.0377</ele>
        <time>2011-03-20T14:26:34Z</time>
      </trkpt>
      <trkpt lat="59.302302" lon="18.5005741">
        <ele>15.0377</ele>
        <time>2011-03-20T14:26:39Z</time>
      </trkpt>
      <trkpt lat="59.3023834" lon="18.500816">
        <ele>15.999</ele>
        <time>2011-03-20T14:26:45Z</time>
      </trkpt>
      <trkpt lat="59.3024067" lon="18.5008891">
        <ele>15.5184</ele>
        <time>2011-03-20T14:26:47Z</time>
      </trkpt>
      <trkpt lat="59.3024497" lon="18.501031">
        <ele>14.557</ele>
        <time>2011-03-20T14:26:51Z</time>
      </trkpt>
      <trkpt lat="59.3024887" lon="18.5012325">
        <ele>14.557</ele>
        <time>2011-03-20T14:26:55Z</time>
      </trkpt>
      <trkpt lat="59.3025321" lon="18.5013925">
        <ele>15.0377</ele>
        <time>2011-03-20T14:26:59Z</time>
      </trkpt>
      <trkpt lat="59.3025768" lon="18.501549">
        <ele>15.999</ele>
        <time>2011-03-20T14:27:03Z</time>
      </trkpt>
      <trkpt lat="59.3026023" lon="18.5016346">
        <ele>16.4797</ele>
        <time>2011-03-20T14:27:05Z</time>
      </trkpt>
      <trkpt lat="59.3026536" lon="18.5017411">
        <ele>16.4797</ele>
        <time>2011-03-20T14:27:09Z</time>
      </trkpt>
      <trkpt lat="59.3027264" lon="18.5017161">
        <ele>14.557</ele>
        <time>2011-03-20T14:27:15Z</time>
      </trkpt>
      <trkpt lat="59.3027766" lon="18.5017163">
        <ele>14.557</ele>
        <time>2011-03-20T14:27:18Z</time>
      </trkpt>
      <trkpt lat="59.3027854" lon="18.5016952">
        <ele>14.0764</ele>
        <time>2011-03-20T14:27:25Z</time>
      </trkpt>
      <trkpt lat="59.3027876" lon="18.5016697">
        <ele>13.5958</ele>
        <time>2011-03-20T14:27:31Z</time>
      </trkpt>
      <trkpt lat="59.3028269" lon="18.5014924">
        <ele>12.1538</ele>
        <time>2011-03-20T14:27:36Z</time>
      </trkpt>
      <trkpt lat="59.3028605" lon="18.5013247">
        <ele>12.1538</ele>
        <time>2011-03-20T14:27:40Z</time>
      </trkpt>
      <trkpt lat="59.3028842" lon="18.5011366">
        <ele>11.1925</ele>
        <time>2011-03-20T14:27:44Z</time>
      </trkpt>
      <trkpt lat="59.3029223" lon="18.5009108">
        <ele>10.2312</ele>
        <time>2011-03-20T14:27:49Z</time>
      </trkpt>
      <trkpt lat="59.3029497" lon="18.5006907">
        <ele>8.30859</ele>
        <time>2011-03-20T14:27:54Z</time>
      </trkpt>
      <trkpt lat="59.3029769" lon="18.5004871">
        <ele>7.34717</ele>
        <time>2011-03-20T14:27:59Z</time>
      </trkpt>
      <trkpt lat="59.3030079" lon="18.5002649">
        <ele>9.2699</ele>
        <time>2011-03-20T14:28:04Z</time>
      </trkpt>
      <trkpt lat="59.3030288" lon="18.5000659">
        <ele>7.82788</ele>
        <time>2011-03-20T14:28:09Z</time>
      </trkpt>
      <trkpt lat="59.303049" lon="18.4998635">
        <ele>5.90527</ele>
        <time>2011-03-20T14:28:14Z</time>
      </trkpt>
      <trkpt lat="59.3030696" lon="18.4997511">
        <ele>4.46326</ele>
        <time>2011-03-20T14:28:17Z</time>
      </trkpt>
      <trkpt lat="59.3031237" lon="18.4995302">
        <ele>1.09863</ele>
        <time>2011-03-20T14:28:23Z</time>
      </trkpt>
      <trkpt lat="59.3031438" lon="18.4993449">
        <ele>0</ele>
        <time>2011-03-20T14:28:27Z</time>
      </trkpt>
      <trkpt lat="59.3031782" lon="18.4990729">
        <ele>0</ele>
        <time>2011-03-20T14:28:33Z</time>
      </trkpt>
      <trkpt lat="59.3032002" lon="18.4988528">
        <ele>0</ele>
        <time>2011-03-20T14:28:38Z</time>
      </trkpt>
      <trkpt lat="59.3032127" lon="18.4986708">
        <ele>0</ele>
        <time>2011-03-20T14:28:42Z</time>
      </trkpt>
      <trkpt lat="59.3032349" lon="18.4984375">
        <ele>0</ele>
        <time>2011-03-20T14:28:47Z</time>
      </trkpt>
      <trkpt lat="59.3032527" lon="18.4982835">
        <ele>0</ele>
        <time>2011-03-20T14:28:50Z</time>
      </trkpt>
      <trkpt lat="59.3032863" lon="18.4979337">
        <ele>0</ele>
        <time>2011-03-20T14:28:57Z</time>
      </trkpt>
      <trkpt lat="59.3032897" lon="18.4978896">
        <ele>0.137451</ele>
        <time>2011-03-20T14:28:58Z</time>
      </trkpt>
      <trkpt lat="59.3033351" lon="18.4975555">
        <ele>1.57935</ele>
        <time>2011-03-20T14:29:05Z</time>
      </trkpt>
      <trkpt lat="59.3033613" lon="18.4974174">
        <ele>1.57935</ele>
        <time>2011-03-20T14:29:08Z</time>
      </trkpt>
      <trkpt lat="59.3034184" lon="18.4971386">
        <ele>2.54065</ele>
        <time>2011-03-20T14:29:14Z</time>
      </trkpt>
      <trkpt lat="59.3034529" lon="18.4969204">
        <ele>3.50195</ele>
        <time>2011-03-20T14:29:19Z</time>
      </trkpt>
      <trkpt lat="59.3034858" lon="18.4967082">
        <ele>4.94385</ele>
        <time>2011-03-20T14:29:24Z</time>
      </trkpt>
      <trkpt lat="59.3035084" lon="18.4964848">
        <ele>5.42456</ele>
        <time>2011-03-20T14:29:29Z</time>
      </trkpt>
      <trkpt lat="59.3035311" lon="18.4963062">
        <ele>5.42456</ele>
        <time>2011-03-20T14:29:33Z</time>
      </trkpt>
      <trkpt lat="59.3035726" lon="18.4960374">
        <ele>5.42456</ele>
        <time>2011-03-20T14:29:39Z</time>
      </trkpt>
      <trkpt lat="59.3035935" lon="18.4958096">
        <ele>5.90527</ele>
        <time>2011-03-20T14:29:44Z</time>
      </trkpt>
      <trkpt lat="59.3036192" lon="18.495512">
        <ele>7.34717</ele>
        <time>2011-03-20T14:29:50Z</time>
      </trkpt>
      <trkpt lat="59.3036679" lon="18.4951903">
        <ele>7.34717</ele>
        <time>2011-03-20T14:29:57Z</time>
      </trkpt>
      <trkpt lat="59.3037041" lon="18.4950194">
        <ele>6.38586</ele>
        <time>2011-03-20T14:30:01Z</time>
      </trkpt>
      <trkpt lat="59.3037399" lon="18.4948447">
        <ele>5.90527</ele>
        <time>2011-03-20T14:30:05Z</time>
      </trkpt>
      <trkpt lat="59.3038098" lon="18.4946168">
        <ele>4.46326</ele>
        <time>2011-03-20T14:30:11Z</time>
      </trkpt>
      <trkpt lat="59.3038805" lon="18.4943736">
        <ele>4.46326</ele>
        <time>2011-03-20T14:30:17Z</time>
      </trkpt>
      <trkpt lat="59.3039323" lon="18.4941855">
        <ele>5.42456</ele>
        <time>2011-03-20T14:30:22Z</time>
      </trkpt>
      <trkpt lat="59.3040021" lon="18.4939519">
        <ele>5.90527</ele>
        <time>2011-03-20T14:30:28Z</time>
      </trkpt>
      <trkpt lat="59.3040732" lon="18.4936996">
        <ele>7.34717</ele>
        <time>2011-03-20T14:30:34Z</time>
      </trkpt>
      <trkpt lat="59.30414" lon="18.4934985">
        <ele>7.82788</ele>
        <time>2011-03-20T14:30:39Z</time>
      </trkpt>
      <trkpt lat="59.3042125" lon="18.4932514">
        <ele>7.82788</ele>
        <time>2011-03-20T14:30:45Z</time>
      </trkpt>
      <trkpt lat="59.3042914" lon="18.4929709">
        <ele>4.94385</ele>
        <time>2011-03-20T14:30:52Z</time>
      </trkpt>
      <trkpt lat="59.3043411" lon="18.4927543">
        <ele>4.94385</ele>
        <time>2011-03-20T14:30:57Z</time>
      </trkpt>
      <trkpt lat="59.3043973" lon="18.492502">
        <ele>4.94385</ele>
        <time>2011-03-20T14:31:03Z</time>
      </trkpt>
      <trkpt lat="59.3044394" lon="18.4922803">
        <ele>4.94385</ele>
        <time>2011-03-20T14:31:08Z</time>
      </trkpt>
      <trkpt lat="59.3044705" lon="18.4920587">
        <ele>5.42456</ele>
        <time>2011-03-20T14:31:13Z</time>
      </trkpt>
      <trkpt lat="59.3045161" lon="18.4917436">
        <ele>5.90527</ele>
        <time>2011-03-20T14:31:20Z</time>
      </trkpt>
      <trkpt lat="59.3045519" lon="18.4915274">
        <ele>4.94385</ele>
        <time>2011-03-20T14:31:25Z</time>
      </trkpt>
      <trkpt lat="59.304582" lon="18.4913012">
        <ele>3.98267</ele>
        <time>2011-03-20T14:31:30Z</time>
      </trkpt>
      <trkpt lat="59.304601" lon="18.4910676">
        <ele>3.50195</ele>
        <time>2011-03-20T14:31:35Z</time>
      </trkpt>
      <trkpt lat="59.3046236" lon="18.4907958">
        <ele>3.02124</ele>
        <time>2011-03-20T14:31:41Z</time>
      </trkpt>
      <trkpt lat="59.3046462" lon="18.4905683">
        <ele>3.50195</ele>
        <time>2011-03-20T14:31:46Z</time>
      </trkpt>
      <trkpt lat="59.3046605" lon="18.490288">
        <ele>3.50195</ele>
        <time>2011-03-20T14:31:52Z</time>
      </trkpt>
      <trkpt lat="59.304671" lon="18.4900037">
        <ele>5.42456</ele>
        <time>2011-03-20T14:31:58Z</time>
      </trkpt>
      <trkpt lat="59.3046844" lon="18.4898161">
        <ele>6.86646</ele>
        <time>2011-03-20T14:32:02Z</time>
      </trkpt>
      <trkpt lat="59.3046973" lon="18.4895218">
        <ele>8.78918</ele>
        <time>2011-03-20T14:32:08Z</time>
      </trkpt>
      <trkpt lat="59.304701" lon="18.4894794">
        <ele>8.78918</ele>
        <time>2011-03-20T14:32:09Z</time>
      </trkpt>
      <trkpt lat="59.3047196" lon="18.4892278">
        <ele>6.86646</ele>
        <time>2011-03-20T14:32:15Z</time>
      </trkpt>
      <trkpt lat="59.3047305" lon="18.489012">
        <ele>5.90527</ele>
        <time>2011-03-20T14:32:20Z</time>
      </trkpt>
      <trkpt lat="59.3047477" lon="18.4887887">
        <ele>4.46326</ele>
        <time>2011-03-20T14:32:25Z</time>
      </trkpt>
      <trkpt lat="59.3047681" lon="18.488575">
        <ele>3.50195</ele>
        <time>2011-03-20T14:32:30Z</time>
      </trkpt>
      <trkpt lat="59.304791" lon="18.4883553">
        <ele>2.06006</ele>
        <time>2011-03-20T14:32:35Z</time>
      </trkpt>
      <trkpt lat="59.3048124" lon="18.4881208">
        <ele>1.57935</ele>
        <time>2011-03-20T14:32:40Z</time>
      </trkpt>
      <trkpt lat="59.3048262" lon="18.4878895">
        <ele>1.57935</ele>
        <time>2011-03-20T14:32:45Z</time>
      </trkpt>
      <trkpt lat="59.3048158" lon="18.487657">
        <ele>1.57935</ele>
        <time>2011-03-20T14:32:50Z</time>
      </trkpt>
      <trkpt lat="59.304804" lon="18.4873878">
        <ele>2.06006</ele>
        <time>2011-03-20T14:32:56Z</time>
      </trkpt>
      <trkpt lat="59.3048015" lon="18.4871524">
        <ele>3.50195</ele>
        <time>2011-03-20T14:33:01Z</time>
      </trkpt>
      <trkpt lat="59.3048014" lon="18.4868667">
        <ele>4.46326</ele>
        <time>2011-03-20T14:33:07Z</time>
      </trkpt>
      <trkpt lat="59.3048006" lon="18.4866567">
        <ele>4.46326</ele>
        <time>2011-03-20T14:33:11Z</time>
      </trkpt>
      <trkpt lat="59.3048051" lon="18.4864237">
        <ele>3.98267</ele>
        <time>2011-03-20T14:33:16Z</time>
      </trkpt>
      <trkpt lat="59.3048145" lon="18.4862052">
        <ele>3.50195</ele>
        <time>2011-03-20T14:33:21Z</time>
      </trkpt>
      <trkpt lat="59.3048279" lon="18.4859409">
        <ele>1.57935</ele>
        <time>2011-03-20T14:33:27Z</time>
      </trkpt>
      <trkpt lat="59.3048344" lon="18.4857544">
        <ele>1.09863</ele>
        <time>2011-03-20T14:33:31Z</time>
      </trkpt>
      <trkpt lat="59.304845" lon="18.4855169">
        <ele>0.137451</ele>
        <time>2011-03-20T14:33:36Z</time>
      </trkpt>
      <trkpt lat="59.3048631" lon="18.4852417">
        <ele>0</ele>
        <time>2011-03-20T14:33:42Z</time>
      </trkpt>
      <trkpt lat="59.304857" lon="18.4850541">
        <ele>0.137451</ele>
        <time>2011-03-20T14:33:46Z</time>
      </trkpt>
      <trkpt lat="59.3048584" lon="18.4848063">
        <ele>0.618042</ele>
        <time>2011-03-20T14:33:51Z</time>
      </trkpt>
      <trkpt lat="59.3048945" lon="18.4846413">
        <ele>1.09863</ele>
        <time>2011-03-20T14:33:55Z</time>
      </trkpt>
      <trkpt lat="59.3049108" lon="18.484373">
        <ele>2.06006</ele>
        <time>2011-03-20T14:34:01Z</time>
      </trkpt>
      <trkpt lat="59.3049091" lon="18.4843257">
        <ele>2.54065</ele>
        <time>2011-03-20T14:34:02Z</time>
      </trkpt>
      <trkpt lat="59.3049332" lon="18.484046">
        <ele>3.02124</ele>
        <time>2011-03-20T14:34:08Z</time>
      </trkpt>
      <trkpt lat="59.3049394" lon="18.4840014">
        <ele>3.50195</ele>
        <time>2011-03-20T14:34:09Z</time>
      </trkpt>
      <trkpt lat="59.3049285" lon="18.4837236">
        <ele>3.50195</ele>
        <time>2011-03-20T14:34:15Z</time>
      </trkpt>
      <trkpt lat="59.3049002" lon="18.4835109">
        <ele>3.50195</ele>
        <time>2011-03-20T14:34:20Z</time>
      </trkpt>
      <trkpt lat="59.3048626" lon="18.4832429">
        <ele>4.46326</ele>
        <time>2011-03-20T14:34:26Z</time>
      </trkpt>
      <trkpt lat="59.3048446" lon="18.4830598">
        <ele>4.46326</ele>
        <time>2011-03-20T14:34:30Z</time>
      </trkpt>
      <trkpt lat="59.304845" lon="18.4828287">
        <ele>4.94385</ele>
        <time>2011-03-20T14:34:35Z</time>
      </trkpt>
      <trkpt lat="59.3048729" lon="18.4825982">
        <ele>5.42456</ele>
        <time>2011-03-20T14:34:40Z</time>
      </trkpt>
      <trkpt lat="59.3049425" lon="18.4823447">
        <ele>5.90527</ele>
        <time>2011-03-20T14:34:47Z</time>
      </trkpt>
      <trkpt lat="59.3050026" lon="18.4821003">
        <ele>7.34717</ele>
        <time>2011-03-20T14:34:53Z</time>
      </trkpt>
      <trkpt lat="59.3050465" lon="18.4818943">
        <ele>8.30859</ele>
        <time>2011-03-20T14:34:58Z</time>
      </trkpt>
      <trkpt lat="59.3050841" lon="18.4816901">
        <ele>9.2699</ele>
        <time>2011-03-20T14:35:03Z</time>
      </trkpt>
      <trkpt lat="59.3051223" lon="18.4814223">
        <ele>9.2699</ele>
        <time>2011-03-20T14:35:09Z</time>
      </trkpt>
      <trkpt lat="59.3051468" lon="18.4811867">
        <ele>10.2312</ele>
        <time>2011-03-20T14:35:14Z</time>
      </trkpt>
      <trkpt lat="59.3051712" lon="18.4808702">
        <ele>9.75061</ele>
        <time>2011-03-20T14:35:21Z</time>
      </trkpt>
      <trkpt lat="59.3052039" lon="18.4805479">
        <ele>8.30859</ele>
        <time>2011-03-20T14:35:28Z</time>
      </trkpt>
      <trkpt lat="59.3052474" lon="18.4802044">
        <ele>6.86646</ele>
        <time>2011-03-20T14:35:35Z</time>
      </trkpt>
      <trkpt lat="59.3052931" lon="18.4799661">
        <ele>5.42456</ele>
        <time>2011-03-20T14:35:40Z</time>
      </trkpt>
      <trkpt lat="59.3053304" lon="18.4797396">
        <ele>4.94385</ele>
        <time>2011-03-20T14:35:45Z</time>
      </trkpt>
      <trkpt lat="59.3053786" lon="18.479475">
        <ele>4.46326</ele>
        <time>2011-03-20T14:35:51Z</time>
      </trkpt>
      <trkpt lat="59.3054205" lon="18.4792595">
        <ele>3.98267</ele>
        <time>2011-03-20T14:35:56Z</time>
      </trkpt>
      <trkpt lat="59.3054583" lon="18.4790233">
        <ele>4.94385</ele>
        <time>2011-03-20T14:36:01Z</time>
      </trkpt>
      <trkpt lat="59.3054735" lon="18.4787877">
        <ele>5.42456</ele>
        <time>2011-03-20T14:36:06Z</time>
      </trkpt>
      <trkpt lat="59.3054822" lon="18.4785442">
        <ele>6.86646</ele>
        <time>2011-03-20T14:36:11Z</time>
      </trkpt>
      <trkpt lat="59.3055318" lon="18.4783277">
        <ele>6.86646</ele>
        <time>2011-03-20T14:36:16Z</time>
      </trkpt>
      <trkpt lat="59.3055892" lon="18.4781275">
        <ele>7.34717</ele>
        <time>2011-03-20T14:36:21Z</time>
      </trkpt>
      <trkpt lat="59.3056598" lon="18.4778806">
        <ele>7.82788</ele>
        <time>2011-03-20T14:36:27Z</time>
      </trkpt>
      <trkpt lat="59.3057267" lon="18.4776316">
        <ele>8.78918</ele>
        <time>2011-03-20T14:36:33Z</time>
      </trkpt>
      <trkpt lat="59.30578" lon="18.4773707">
        <ele>9.75061</ele>
        <time>2011-03-20T14:36:39Z</time>
      </trkpt>
      <trkpt lat="59.3058303" lon="18.4771611">
        <ele>10.7118</ele>
        <time>2011-03-20T14:36:44Z</time>
      </trkpt>
      <trkpt lat="59.3058974" lon="18.4768794">
        <ele>9.2699</ele>
        <time>2011-03-20T14:36:51Z</time>
      </trkpt>
      <trkpt lat="59.3059448" lon="18.4766704">
        <ele>8.30859</ele>
        <time>2011-03-20T14:36:56Z</time>
      </trkpt>
      <trkpt lat="59.3059893" lon="18.4764556">
        <ele>7.82788</ele>
        <time>2011-03-20T14:37:01Z</time>
      </trkpt>
      <trkpt lat="59.3060348" lon="18.4762499">
        <ele>8.30859</ele>
        <time>2011-03-20T14:37:06Z</time>
      </trkpt>
      <trkpt lat="59.3060815" lon="18.4760373">
        <ele>8.30859</ele>
        <time>2011-03-20T14:37:11Z</time>
      </trkpt>
      <trkpt lat="59.3061277" lon="18.475835">
        <ele>8.78918</ele>
        <time>2011-03-20T14:37:16Z</time>
      </trkpt>
      <trkpt lat="59.3061352" lon="18.4757935">
        <ele>8.78918</ele>
        <time>2011-03-20T14:37:17Z</time>
      </trkpt>
      <trkpt lat="59.3062043" lon="18.4755053">
        <ele>9.75061</ele>
        <time>2011-03-20T14:37:24Z</time>
      </trkpt>
      <trkpt lat="59.3062777" lon="18.4752">
        <ele>10.2312</ele>
        <time>2011-03-20T14:37:31Z</time>
      </trkpt>
      <trkpt lat="59.3063416" lon="18.4749434">
        <ele>10.2312</ele>
        <time>2011-03-20T14:37:37Z</time>
      </trkpt>
      <trkpt lat="59.3063991" lon="18.4747425">
        <ele>10.2312</ele>
        <time>2011-03-20T14:37:42Z</time>
      </trkpt>
      <trkpt lat="59.3064612" lon="18.4744976">
        <ele>10.7118</ele>
        <time>2011-03-20T14:37:48Z</time>
      </trkpt>
      <trkpt lat="59.3065105" lon="18.4742797">
        <ele>11.1925</ele>
        <time>2011-03-20T14:37:53Z</time>
      </trkpt>
      <trkpt lat="59.306541" lon="18.4741129">
        <ele>12.1538</ele>
        <time>2011-03-20T14:37:57Z</time>
      </trkpt>
      <trkpt lat="59.3065793" lon="18.473951">
        <ele>13.1151</ele>
        <time>2011-03-20T14:38:01Z</time>
      </trkpt>
      <trkpt lat="59.3066316" lon="18.4737045">
        <ele>15.0377</ele>
        <time>2011-03-20T14:38:07Z</time>
      </trkpt>
      <trkpt lat="59.3066399" lon="18.4736553">
        <ele>15.5184</ele>
        <time>2011-03-20T14:38:08Z</time>
      </trkpt>
      <trkpt lat="59.3067227" lon="18.4734879">
        <ele>15.0377</ele>
        <time>2011-03-20T14:38:14Z</time>
      </trkpt>
      <trkpt lat="59.3067923" lon="18.4733741">
        <ele>15.0377</ele>
        <time>2011-03-20T14:38:18Z</time>
      </trkpt>
      <trkpt lat="59.3068594" lon="18.4732631">
        <ele>15.5184</ele>
        <time>2011-03-20T14:38:22Z</time>
      </trkpt>
      <trkpt lat="59.3069295" lon="18.4731318">
        <ele>14.557</ele>
        <time>2011-03-20T14:38:27Z</time>
      </trkpt>
      <trkpt lat="59.3070265" lon="18.4729596">
        <ele>14.557</ele>
        <time>2011-03-20T14:38:33Z</time>
      </trkpt>
      <trkpt lat="59.3071092" lon="18.4727761">
        <ele>15.5184</ele>
        <time>2011-03-20T14:38:38Z</time>
      </trkpt>
      <trkpt lat="59.3072152" lon="18.4725861">
        <ele>14.0764</ele>
        <time>2011-03-20T14:38:44Z</time>
      </trkpt>
      <trkpt lat="59.3072315" lon="18.4725543">
        <ele>14.557</ele>
        <time>2011-03-20T14:38:45Z</time>
      </trkpt>
      <trkpt lat="59.3073118" lon="18.4723954">
        <ele>14.557</ele>
        <time>2011-03-20T14:38:50Z</time>
      </trkpt>
      <trkpt lat="59.3074014" lon="18.4722353">
        <ele>15.0377</ele>
        <time>2011-03-20T14:38:55Z</time>
      </trkpt>
      <trkpt lat="59.3074278" lon="18.4721745">
        <ele>14.0764</ele>
        <time>2011-03-20T14:38:57Z</time>
      </trkpt>
      <trkpt lat="59.3075241" lon="18.4720302">
        <ele>14.557</ele>
        <time>2011-03-20T14:39:02Z</time>
      </trkpt>
      <trkpt lat="59.3076094" lon="18.4719054">
        <ele>14.0764</ele>
        <time>2011-03-20T14:39:06Z</time>
      </trkpt>
      <trkpt lat="59.3076882" lon="18.4716691">
        <ele>13.1151</ele>
        <time>2011-03-20T14:39:12Z</time>
      </trkpt>
      <trkpt lat="59.3077061" lon="18.4716327">
        <ele>13.5958</ele>
        <time>2011-03-20T14:39:13Z</time>
      </trkpt>
      <trkpt lat="59.307793" lon="18.4715423">
        <ele>14.557</ele>
        <time>2011-03-20T14:39:17Z</time>
      </trkpt>
      <trkpt lat="59.3078998" lon="18.4714719">
        <ele>12.6344</ele>
        <time>2011-03-20T14:39:22Z</time>
      </trkpt>
      <trkpt lat="59.3079514" lon="18.4713942">
        <ele>11.1925</ele>
        <time>2011-03-20T14:39:25Z</time>
      </trkpt>
      <trkpt lat="59.3080831" lon="18.4712062">
        <ele>8.30859</ele>
        <time>2011-03-20T14:39:32Z</time>
      </trkpt>
      <trkpt lat="59.3081448" lon="18.4711278">
        <ele>8.78918</ele>
        <time>2011-03-20T14:39:35Z</time>
      </trkpt>
      <trkpt lat="59.3082628" lon="18.470944">
        <ele>9.2699</ele>
        <time>2011-03-20T14:39:41Z</time>
      </trkpt>
      <trkpt lat="59.3083887" lon="18.4707286">
        <ele>9.2699</ele>
        <time>2011-03-20T14:39:48Z</time>
      </trkpt>
      <trkpt lat="59.3084823" lon="18.4704841">
        <ele>10.2312</ele>
        <time>2011-03-20T14:39:54Z</time>
      </trkpt>
      <trkpt lat="59.3085467" lon="18.4703519">
        <ele>10.2312</ele>
        <time>2011-03-20T14:39:58Z</time>
      </trkpt>
      <trkpt lat="59.3086363" lon="18.4702362">
        <ele>9.2699</ele>
        <time>2011-03-20T14:40:03Z</time>
      </trkpt>
      <trkpt lat="59.3087459" lon="18.4700437">
        <ele>10.2312</ele>
        <time>2011-03-20T14:40:09Z</time>
      </trkpt>
      <trkpt lat="59.3088181" lon="18.4699117">
        <ele>11.6732</ele>
        <time>2011-03-20T14:40:13Z</time>
      </trkpt>
      <trkpt lat="59.3088942" lon="18.4697587">
        <ele>12.1538</ele>
        <time>2011-03-20T14:40:18Z</time>
      </trkpt>
      <trkpt lat="59.3089662" lon="18.4695802">
        <ele>13.1151</ele>
        <time>2011-03-20T14:40:23Z</time>
      </trkpt>
      <trkpt lat="59.3090633" lon="18.4694517">
        <ele>14.557</ele>
        <time>2011-03-20T14:40:28Z</time>
      </trkpt>
      <trkpt lat="59.3091638" lon="18.4693614">
        <ele>15.5184</ele>
        <time>2011-03-20T14:40:33Z</time>
      </trkpt>
      <trkpt lat="59.3092435" lon="18.4692516">
        <ele>16.9604</ele>
        <time>2011-03-20T14:40:39Z</time>
      </trkpt>
      <trkpt lat="59.3092766" lon="18.4691864">
        <ele>16.4797</ele>
        <time>2011-03-20T14:40:41Z</time>
      </trkpt>
      <trkpt lat="59.3093508" lon="18.4689817">
        <ele>17.9218</ele>
        <time>2011-03-20T14:40:46Z</time>
      </trkpt>
      <trkpt lat="59.3094184" lon="18.468789">
        <ele>19.8444</ele>
        <time>2011-03-20T14:40:51Z</time>
      </trkpt>
      <trkpt lat="59.3094852" lon="18.4686057">
        <ele>19.3638</ele>
        <time>2011-03-20T14:40:56Z</time>
      </trkpt>
      <trkpt lat="59.3095512" lon="18.468386">
        <ele>17.4412</ele>
        <time>2011-03-20T14:41:02Z</time>
      </trkpt>
      <trkpt lat="59.3096131" lon="18.4681952">
        <ele>18.4023</ele>
        <time>2011-03-20T14:41:07Z</time>
      </trkpt>
      <trkpt lat="59.3096664" lon="18.4680405">
        <ele>18.8831</ele>
        <time>2011-03-20T14:41:11Z</time>
      </trkpt>
      <trkpt lat="59.3097234" lon="18.4678541">
        <ele>17.4412</ele>
        <time>2011-03-20T14:41:16Z</time>
      </trkpt>
      <trkpt lat="59.3097837" lon="18.4676155">
        <ele>18.4023</ele>
        <time>2011-03-20T14:41:22Z</time>
      </trkpt>
      <trkpt lat="59.3098195" lon="18.4673985">
        <ele>19.3638</ele>
        <time>2011-03-20T14:41:27Z</time>
      </trkpt>
      <trkpt lat="59.3098428" lon="18.4672086">
        <ele>17.4412</ele>
        <time>2011-03-20T14:41:32Z</time>
      </trkpt>
      <trkpt lat="59.3098631" lon="18.4670115">
        <ele>16.4797</ele>
        <time>2011-03-20T14:41:37Z</time>
      </trkpt>
      <trkpt lat="59.3098607" lon="18.4667862">
        <ele>16.4797</ele>
        <time>2011-03-20T14:41:42Z</time>
      </trkpt>
      <trkpt lat="59.3098734" lon="18.4666322">
        <ele>15.0377</ele>
        <time>2011-03-20T14:41:46Z</time>
      </trkpt>
      <trkpt lat="59.3099177" lon="18.4664082">
        <ele>14.0764</ele>
        <time>2011-03-20T14:41:51Z</time>
      </trkpt>
      <trkpt lat="59.3099625" lon="18.466242">
        <ele>11.1925</ele>
        <time>2011-03-20T14:41:55Z</time>
      </trkpt>
      <trkpt lat="59.310037" lon="18.4659909">
        <ele>9.2699</ele>
        <time>2011-03-20T14:42:01Z</time>
      </trkpt>
      <trkpt lat="59.3101047" lon="18.465784">
        <ele>6.86646</ele>
        <time>2011-03-20T14:42:06Z</time>
      </trkpt>
      <trkpt lat="59.3102093" lon="18.4654837">
        <ele>3.98267</ele>
        <time>2011-03-20T14:42:13Z</time>
      </trkpt>
      <trkpt lat="59.3102674" lon="18.4652122">
        <ele>3.98267</ele>
        <time>2011-03-20T14:42:19Z</time>
      </trkpt>
      <trkpt lat="59.3103157" lon="18.464977">
        <ele>4.46326</ele>
        <time>2011-03-20T14:42:24Z</time>
      </trkpt>
      <trkpt lat="59.3103635" lon="18.4647636">
        <ele>4.46326</ele>
        <time>2011-03-20T14:42:29Z</time>
      </trkpt>
      <trkpt lat="59.3104279" lon="18.4645082">
        <ele>3.50195</ele>
        <time>2011-03-20T14:42:35Z</time>
      </trkpt>
      <trkpt lat="59.310501" lon="18.4642487">
        <ele>3.02124</ele>
        <time>2011-03-20T14:42:41Z</time>
      </trkpt>
      <trkpt lat="59.3105738" lon="18.4639824">
        <ele>2.54065</ele>
        <time>2011-03-20T14:42:47Z</time>
      </trkpt>
      <trkpt lat="59.3106482" lon="18.4637434">
        <ele>1.57935</ele>
        <time>2011-03-20T14:42:53Z</time>
      </trkpt>
      <trkpt lat="59.3107015" lon="18.4635649">
        <ele>0.618042</ele>
        <time>2011-03-20T14:42:58Z</time>
      </trkpt>
      <trkpt lat="59.3107722" lon="18.463351">
        <ele>0.137451</ele>
        <time>2011-03-20T14:43:04Z</time>
      </trkpt>
      <trkpt lat="59.3107871" lon="18.4633148">
        <ele>0.618042</ele>
        <time>2011-03-20T14:43:05Z</time>
      </trkpt>
      <trkpt lat="59.3108752" lon="18.4631104">
        <ele>0</ele>
        <time>2011-03-20T14:43:11Z</time>
      </trkpt>
      <trkpt lat="59.3109224" lon="18.4629639">
        <ele>0</ele>
        <time>2011-03-20T14:43:15Z</time>
      </trkpt>
      <trkpt lat="59.3110043" lon="18.4627387">
        <ele>0</ele>
        <time>2011-03-20T14:43:21Z</time>
      </trkpt>
      <trkpt lat="59.3110739" lon="18.4624909">
        <ele>0</ele>
        <time>2011-03-20T14:43:27Z</time>
      </trkpt>
      <trkpt lat="59.3111662" lon="18.4622148">
        <ele>0</ele>
        <time>2011-03-20T14:43:34Z</time>
      </trkpt>
      <trkpt lat="59.3112558" lon="18.4619498">
        <ele>0</ele>
        <time>2011-03-20T14:43:41Z</time>
      </trkpt>
      <trkpt lat="59.3113091" lon="18.4617817">
        <ele>0.618042</ele>
        <time>2011-03-20T14:43:46Z</time>
      </trkpt>
      <trkpt lat="59.3113166" lon="18.4617598">
        <ele>1.57935</ele>
        <time>2011-03-20T14:43:48Z</time>
      </trkpt>
      <trkpt lat="59.3112606" lon="18.4619663">
        <ele>1.09863</ele>
        <time>2011-03-20T14:43:54Z</time>
      </trkpt>
      <trkpt lat="59.3112075" lon="18.4621564">
        <ele>2.06006</ele>
        <time>2011-03-20T14:43:59Z</time>
      </trkpt>
      <trkpt lat="59.3111482" lon="18.4624023">
        <ele>0.618042</ele>
        <time>2011-03-20T14:44:05Z</time>
      </trkpt>
      <trkpt lat="59.3110902" lon="18.4626542">
        <ele>2.06006</ele>
        <time>2011-03-20T14:44:11Z</time>
      </trkpt>
      <trkpt lat="59.3110084" lon="18.4629013">
        <ele>1.57935</ele>
        <time>2011-03-20T14:44:17Z</time>
      </trkpt>
      <trkpt lat="59.310946" lon="18.4631344">
        <ele>3.98267</ele>
        <time>2011-03-20T14:44:22Z</time>
      </trkpt>
      <trkpt lat="59.3108884" lon="18.463312">
        <ele>3.98267</ele>
        <time>2011-03-20T14:44:26Z</time>
      </trkpt>
      <trkpt lat="59.3108358" lon="18.4635685">
        <ele>7.82788</ele>
        <time>2011-03-20T14:44:32Z</time>
      </trkpt>
      <trkpt lat="59.3107457" lon="18.4638035">
        <ele>7.34717</ele>
        <time>2011-03-20T14:44:38Z</time>
      </trkpt>
      <trkpt lat="59.3106902" lon="18.4639674">
        <ele>8.30859</ele>
        <time>2011-03-20T14:44:42Z</time>
      </trkpt>
      <trkpt lat="59.3106452" lon="18.4641508">
        <ele>8.78918</ele>
        <time>2011-03-20T14:44:46Z</time>
      </trkpt>
      <trkpt lat="59.3105885" lon="18.4643769">
        <ele>8.30859</ele>
        <time>2011-03-20T14:44:51Z</time>
      </trkpt>
      <trkpt lat="59.3105347" lon="18.4645947">
        <ele>8.78918</ele>
        <time>2011-03-20T14:44:56Z</time>
      </trkpt>
      <trkpt lat="59.3104629" lon="18.4649041">
        <ele>8.78918</ele>
        <time>2011-03-20T14:45:03Z</time>
      </trkpt>
      <trkpt lat="59.3104038" lon="18.4651306">
        <ele>11.1925</ele>
        <time>2011-03-20T14:45:08Z</time>
      </trkpt>
      <trkpt lat="59.3103417" lon="18.4654083">
        <ele>11.6732</ele>
        <time>2011-03-20T14:45:14Z</time>
      </trkpt>
      <trkpt lat="59.310281" lon="18.4656054">
        <ele>10.2312</ele>
        <time>2011-03-20T14:45:19Z</time>
      </trkpt>
      <trkpt lat="59.3102152" lon="18.4658406">
        <ele>9.75061</ele>
        <time>2011-03-20T14:45:25Z</time>
      </trkpt>
      <trkpt lat="59.3101622" lon="18.4660103">
        <ele>8.78918</ele>
        <time>2011-03-20T14:45:30Z</time>
      </trkpt>
      <trkpt lat="59.3101111" lon="18.4661854">
        <ele>9.75061</ele>
        <time>2011-03-20T14:45:35Z</time>
      </trkpt>
      <trkpt lat="59.3100681" lon="18.4663496">
        <ele>11.1925</ele>
        <time>2011-03-20T14:45:39Z</time>
      </trkpt>
      <trkpt lat="59.3100189" lon="18.4666072">
        <ele>14.557</ele>
        <time>2011-03-20T14:45:45Z</time>
      </trkpt>
      <trkpt lat="59.3099913" lon="18.4668137">
        <ele>17.4412</ele>
        <time>2011-03-20T14:45:50Z</time>
      </trkpt>
      <trkpt lat="59.3099645" lon="18.4671035">
        <ele>18.8831</ele>
        <time>2011-03-20T14:45:56Z</time>
      </trkpt>
      <trkpt lat="59.3099319" lon="18.4673827">
        <ele>18.4023</ele>
        <time>2011-03-20T14:46:02Z</time>
      </trkpt>
      <trkpt lat="59.309891" lon="18.4676327">
        <ele>17.4412</ele>
        <time>2011-03-20T14:46:08Z</time>
      </trkpt>
      <trkpt lat="59.3098283" lon="18.4678927">
        <ele>16.4797</ele>
        <time>2011-03-20T14:46:14Z</time>
      </trkpt>
      <trkpt lat="59.3097873" lon="18.4680664">
        <ele>15.0377</ele>
        <time>2011-03-20T14:46:18Z</time>
      </trkpt>
      <trkpt lat="59.3097242" lon="18.4682478">
        <ele>14.0764</ele>
        <time>2011-03-20T14:46:23Z</time>
      </trkpt>
      <trkpt lat="59.3096553" lon="18.4684335">
        <ele>13.5958</ele>
        <time>2011-03-20T14:46:28Z</time>
      </trkpt>
      <trkpt lat="59.3095687" lon="18.4686741">
        <ele>14.557</ele>
        <time>2011-03-20T14:46:34Z</time>
      </trkpt>
      <trkpt lat="59.3094953" lon="18.4688529">
        <ele>14.557</ele>
        <time>2011-03-20T14:46:39Z</time>
      </trkpt>
      <trkpt lat="59.309481" lon="18.4688821">
        <ele>14.557</ele>
        <time>2011-03-20T14:46:40Z</time>
      </trkpt>
      <trkpt lat="59.3094129" lon="18.4690657">
        <ele>13.5958</ele>
        <time>2011-03-20T14:46:45Z</time>
      </trkpt>
      <trkpt lat="59.3094078" lon="18.4691314">
        <ele>13.5958</ele>
        <time>2011-03-20T14:46:47Z</time>
      </trkpt>
      <trkpt lat="59.309416" lon="18.4692102">
        <ele>13.5958</ele>
        <time>2011-03-20T14:46:49Z</time>
      </trkpt>
      <trkpt lat="59.3093315" lon="18.4693878">
        <ele>11.1925</ele>
        <time>2011-03-20T14:46:55Z</time>
      </trkpt>
      <trkpt lat="59.3091997" lon="18.4695242">
        <ele>10.7118</ele>
        <time>2011-03-20T14:47:00Z</time>
      </trkpt>
      <trkpt lat="59.3090783" lon="18.4696995">
        <ele>12.6344</ele>
        <time>2011-03-20T14:47:06Z</time>
      </trkpt>
      <trkpt lat="59.3089999" lon="18.4698081">
        <ele>13.5958</ele>
        <time>2011-03-20T14:47:10Z</time>
      </trkpt>
      <trkpt lat="59.3089026" lon="18.4699795">
        <ele>14.557</ele>
        <time>2011-03-20T14:47:15Z</time>
      </trkpt>
      <trkpt lat="59.3088167" lon="18.4701543">
        <ele>15.0377</ele>
        <time>2011-03-20T14:47:20Z</time>
      </trkpt>
      <trkpt lat="59.3087229" lon="18.4703519">
        <ele>14.557</ele>
        <time>2011-03-20T14:47:26Z</time>
      </trkpt>
      <trkpt lat="59.3086198" lon="18.4705517">
        <ele>14.557</ele>
        <time>2011-03-20T14:47:32Z</time>
      </trkpt>
      <trkpt lat="59.3085263" lon="18.4707084">
        <ele>14.557</ele>
        <time>2011-03-20T14:47:37Z</time>
      </trkpt>
      <trkpt lat="59.3084411" lon="18.4708749">
        <ele>13.5958</ele>
        <time>2011-03-20T14:47:42Z</time>
      </trkpt>
      <trkpt lat="59.3083462" lon="18.4710114">
        <ele>14.0764</ele>
        <time>2011-03-20T14:47:47Z</time>
      </trkpt>
      <trkpt lat="59.3082702" lon="18.4711334">
        <ele>13.1151</ele>
        <time>2011-03-20T14:47:51Z</time>
      </trkpt>
      <trkpt lat="59.3081767" lon="18.4712689">
        <ele>11.6732</ele>
        <time>2011-03-20T14:47:56Z</time>
      </trkpt>
      <trkpt lat="59.3081199" lon="18.4713465">
        <ele>10.7118</ele>
        <time>2011-03-20T14:47:59Z</time>
      </trkpt>
      <trkpt lat="59.307986" lon="18.4715189">
        <ele>10.2312</ele>
        <time>2011-03-20T14:48:06Z</time>
      </trkpt>
      <trkpt lat="59.3078567" lon="18.4716255">
        <ele>11.1925</ele>
        <time>2011-03-20T14:48:12Z</time>
      </trkpt>
      <trkpt lat="59.3077561" lon="18.4717096">
        <ele>11.6732</ele>
        <time>2011-03-20T14:48:17Z</time>
      </trkpt>
      <trkpt lat="59.3077029" lon="18.4718356">
        <ele>11.6732</ele>
        <time>2011-03-20T14:48:21Z</time>
      </trkpt>
      <trkpt lat="59.3076552" lon="18.4720058">
        <ele>13.5958</ele>
        <time>2011-03-20T14:48:26Z</time>
      </trkpt>
      <trkpt lat="59.3075738" lon="18.4721425">
        <ele>14.0764</ele>
        <time>2011-03-20T14:48:31Z</time>
      </trkpt>
      <trkpt lat="59.307476" lon="18.4723067">
        <ele>14.0764</ele>
        <time>2011-03-20T14:48:37Z</time>
      </trkpt>
      <trkpt lat="59.3073779" lon="18.4724888">
        <ele>14.0764</ele>
        <time>2011-03-20T14:48:43Z</time>
      </trkpt>
      <trkpt lat="59.3072717" lon="18.4726741">
        <ele>14.557</ele>
        <time>2011-03-20T14:48:49Z</time>
      </trkpt>
      <trkpt lat="59.3072066" lon="18.4728155">
        <ele>15.5184</ele>
        <time>2011-03-20T14:48:54Z</time>
      </trkpt>
      <trkpt lat="59.3071218" lon="18.4729974">
        <ele>15.999</ele>
        <time>2011-03-20T14:49:00Z</time>
      </trkpt>
      <trkpt lat="59.3070253" lon="18.4731952">
        <ele>16.4797</ele>
        <time>2011-03-20T14:49:06Z</time>
      </trkpt>
      <trkpt lat="59.3069435" lon="18.4733354">
        <ele>15.5184</ele>
        <time>2011-03-20T14:49:11Z</time>
      </trkpt>
      <trkpt lat="59.3068461" lon="18.4734946">
        <ele>13.5958</ele>
        <time>2011-03-20T14:49:16Z</time>
      </trkpt>
      <trkpt lat="59.3067702" lon="18.4736133">
        <ele>13.1151</ele>
        <time>2011-03-20T14:49:20Z</time>
      </trkpt>
      <trkpt lat="59.3066912" lon="18.4738459">
        <ele>13.1151</ele>
        <time>2011-03-20T14:49:26Z</time>
      </trkpt>
      <trkpt lat="59.3066346" lon="18.4740568">
        <ele>13.1151</ele>
        <time>2011-03-20T14:49:31Z</time>
      </trkpt>
      <trkpt lat="59.3065962" lon="18.4742313">
        <ele>12.6344</ele>
        <time>2011-03-20T14:49:35Z</time>
      </trkpt>
      <trkpt lat="59.3065471" lon="18.4744642">
        <ele>13.1151</ele>
        <time>2011-03-20T14:49:40Z</time>
      </trkpt>
      <trkpt lat="59.3064792" lon="18.4747379">
        <ele>13.1151</ele>
        <time>2011-03-20T14:49:46Z</time>
      </trkpt>
      <trkpt lat="59.3064084" lon="18.4749984">
        <ele>11.6732</ele>
        <time>2011-03-20T14:49:52Z</time>
      </trkpt>
      <trkpt lat="59.3063513" lon="18.4752954">
        <ele>11.6732</ele>
        <time>2011-03-20T14:49:58Z</time>
      </trkpt>
      <trkpt lat="59.3062986" lon="18.4755412">
        <ele>12.1538</ele>
        <time>2011-03-20T14:50:03Z</time>
      </trkpt>
      <trkpt lat="59.3062456" lon="18.4758149">
        <ele>12.6344</ele>
        <time>2011-03-20T14:50:09Z</time>
      </trkpt>
      <trkpt lat="59.3062012" lon="18.4759949">
        <ele>12.1538</ele>
        <time>2011-03-20T14:50:13Z</time>
      </trkpt>
      <trkpt lat="59.3061497" lon="18.476287">
        <ele>13.5958</ele>
        <time>2011-03-20T14:50:19Z</time>
      </trkpt>
      <trkpt lat="59.3061126" lon="18.4765167">
        <ele>14.0764</ele>
        <time>2011-03-20T14:50:24Z</time>
      </trkpt>
      <trkpt lat="59.3060626" lon="18.4767387">
        <ele>12.1538</ele>
        <time>2011-03-20T14:50:29Z</time>
      </trkpt>
      <trkpt lat="59.3060176" lon="18.4769673">
        <ele>11.1925</ele>
        <time>2011-03-20T14:50:34Z</time>
      </trkpt>
      <trkpt lat="59.3059622" lon="18.4772362">
        <ele>10.7118</ele>
        <time>2011-03-20T14:50:40Z</time>
      </trkpt>
      <trkpt lat="59.3059091" lon="18.4774832">
        <ele>10.7118</ele>
        <time>2011-03-20T14:50:45Z</time>
      </trkpt>
      <trkpt lat="59.305856" lon="18.4777212">
        <ele>11.1925</ele>
        <time>2011-03-20T14:50:50Z</time>
      </trkpt>
      <trkpt lat="59.3057893" lon="18.4779889">
        <ele>10.7118</ele>
        <time>2011-03-20T14:50:56Z</time>
      </trkpt>
      <trkpt lat="59.3057313" lon="18.4782009">
        <ele>10.7118</ele>
        <time>2011-03-20T14:51:01Z</time>
      </trkpt>
      <trkpt lat="59.305661" lon="18.478451">
        <ele>11.1925</ele>
        <time>2011-03-20T14:51:07Z</time>
      </trkpt>
      <trkpt lat="59.3056024" lon="18.4786762">
        <ele>9.2699</ele>
        <time>2011-03-20T14:51:12Z</time>
      </trkpt>
      <trkpt lat="59.3055778" lon="18.478924">
        <ele>9.75061</ele>
        <time>2011-03-20T14:51:17Z</time>
      </trkpt>
      <trkpt lat="59.3055563" lon="18.4791076">
        <ele>9.75061</ele>
        <time>2011-03-20T14:51:21Z</time>
      </trkpt>
      <trkpt lat="59.3055231" lon="18.4792911">
        <ele>10.2312</ele>
        <time>2011-03-20T14:51:25Z</time>
      </trkpt>
      <trkpt lat="59.3054873" lon="18.4795352">
        <ele>10.7118</ele>
        <time>2011-03-20T14:51:30Z</time>
      </trkpt>
      <trkpt lat="59.3054464" lon="18.4797636">
        <ele>11.6732</ele>
        <time>2011-03-20T14:51:35Z</time>
      </trkpt>
      <trkpt lat="59.3054063" lon="18.4800014">
        <ele>12.1538</ele>
        <time>2011-03-20T14:51:40Z</time>
      </trkpt>
      <trkpt lat="59.3053838" lon="18.4801678">
        <ele>13.1151</ele>
        <time>2011-03-20T14:51:44Z</time>
      </trkpt>
      <trkpt lat="59.3053589" lon="18.4804079">
        <ele>13.5958</ele>
        <time>2011-03-20T14:51:49Z</time>
      </trkpt>
      <trkpt lat="59.3053248" lon="18.4806728">
        <ele>14.0764</ele>
        <time>2011-03-20T14:51:55Z</time>
      </trkpt>
      <trkpt lat="59.305289" lon="18.4809478">
        <ele>15.0377</ele>
        <time>2011-03-20T14:52:01Z</time>
      </trkpt>
      <trkpt lat="59.3052584" lon="18.4811848">
        <ele>13.1151</ele>
        <time>2011-03-20T14:52:06Z</time>
      </trkpt>
      <trkpt lat="59.305232" lon="18.4814216">
        <ele>12.6344</ele>
        <time>2011-03-20T14:52:11Z</time>
      </trkpt>
      <trkpt lat="59.3051992" lon="18.4816177">
        <ele>11.1925</ele>
        <time>2011-03-20T14:52:15Z</time>
      </trkpt>
      <trkpt lat="59.3051771" lon="18.4818113">
        <ele>10.2312</ele>
        <time>2011-03-20T14:52:19Z</time>
      </trkpt>
      <trkpt lat="59.3051139" lon="18.482101">
        <ele>9.2699</ele>
        <time>2011-03-20T14:52:25Z</time>
      </trkpt>
      <trkpt lat="59.3050491" lon="18.4823811">
        <ele>8.78918</ele>
        <time>2011-03-20T14:52:31Z</time>
      </trkpt>
      <trkpt lat="59.3050036" lon="18.4825448">
        <ele>8.78918</ele>
        <time>2011-03-20T14:52:35Z</time>
      </trkpt>
      <trkpt lat="59.3049755" lon="18.4826961">
        <ele>9.2699</ele>
        <time>2011-03-20T14:52:39Z</time>
      </trkpt>
      <trkpt lat="59.304935" lon="18.4829205">
        <ele>10.2312</ele>
        <time>2011-03-20T14:52:44Z</time>
      </trkpt>
      <trkpt lat="59.3049294" lon="18.4831698">
        <ele>9.75061</ele>
        <time>2011-03-20T14:52:49Z</time>
      </trkpt>
      <trkpt lat="59.3049501" lon="18.4833472">
        <ele>6.86646</ele>
        <time>2011-03-20T14:52:53Z</time>
      </trkpt>
      <trkpt lat="59.3049739" lon="18.4836307">
        <ele>4.46326</ele>
        <time>2011-03-20T14:52:59Z</time>
      </trkpt>
      <trkpt lat="59.3049885" lon="18.4837637">
        <ele>1.57935</ele>
        <time>2011-03-20T14:53:02Z</time>
      </trkpt>
      <trkpt lat="59.3049849" lon="18.4840051">
        <ele>0</ele>
        <time>2011-03-20T14:53:07Z</time>
      </trkpt>
      <trkpt lat="59.3049766" lon="18.4841392">
        <ele>0</ele>
        <time>2011-03-20T14:53:10Z</time>
      </trkpt>
      <trkpt lat="59.3049322" lon="18.4844495">
        <ele>0</ele>
        <time>2011-03-20T14:53:17Z</time>
      </trkpt>
      <trkpt lat="59.30487" lon="18.4847935">
        <ele>0</ele>
        <time>2011-03-20T14:53:24Z</time>
      </trkpt>
      <trkpt lat="59.3048497" lon="18.4849271">
        <ele>0</ele>
        <time>2011-03-20T14:53:27Z</time>
      </trkpt>
      <trkpt lat="59.3048673" lon="18.4852341">
        <ele>0</ele>
        <time>2011-03-20T14:53:33Z</time>
      </trkpt>
      <trkpt lat="59.3048536" lon="18.4855884">
        <ele>0</ele>
        <time>2011-03-20T14:53:40Z</time>
      </trkpt>
      <trkpt lat="59.3048554" lon="18.485894">
        <ele>1.09863</ele>
        <time>2011-03-20T14:53:46Z</time>
      </trkpt>
      <trkpt lat="59.3048467" lon="18.4861259">
        <ele>1.09863</ele>
        <time>2011-03-20T14:53:51Z</time>
      </trkpt>
      <trkpt lat="59.3048262" lon="18.486452">
        <ele>2.54065</ele>
        <time>2011-03-20T14:53:58Z</time>
      </trkpt>
      <trkpt lat="59.3048151" lon="18.4866873">
        <ele>3.02124</ele>
        <time>2011-03-20T14:54:03Z</time>
      </trkpt>
      <trkpt lat="59.3048127" lon="18.4869242">
        <ele>3.98267</ele>
        <time>2011-03-20T14:54:08Z</time>
      </trkpt>
      <trkpt lat="59.3048176" lon="18.487019">
        <ele>4.94385</ele>
        <time>2011-03-20T14:54:10Z</time>
      </trkpt>
      <trkpt lat="59.3048226" lon="18.4872482">
        <ele>6.38586</ele>
        <time>2011-03-20T14:54:15Z</time>
      </trkpt>
      <trkpt lat="59.3048254" lon="18.4873015">
        <ele>6.38586</ele>
        <time>2011-03-20T14:54:16Z</time>
      </trkpt>
      <trkpt lat="59.3048129" lon="18.4874576">
        <ele>6.86646</ele>
        <time>2011-03-20T14:54:19Z</time>
      </trkpt>
      <trkpt lat="59.304866" lon="18.4877586">
        <ele>10.7118</ele>
        <time>2011-03-20T14:54:26Z</time>
      </trkpt>
      <trkpt lat="59.3049026" lon="18.4879611">
        <ele>13.5958</ele>
        <time>2011-03-20T14:54:31Z</time>
      </trkpt>
      <trkpt lat="59.3049308" lon="18.4882109">
        <ele>14.557</ele>
        <time>2011-03-20T14:54:36Z</time>
      </trkpt>
      <trkpt lat="59.3049265" lon="18.4884434">
        <ele>15.0377</ele>
        <time>2011-03-20T14:54:41Z</time>
      </trkpt>
      <trkpt lat="59.3049274" lon="18.4884925">
        <ele>14.557</ele>
        <time>2011-03-20T14:54:42Z</time>
      </trkpt>
      <trkpt lat="59.3048963" lon="18.4888172">
        <ele>13.5958</ele>
        <time>2011-03-20T14:54:48Z</time>
      </trkpt>
      <trkpt lat="59.3048501" lon="18.4891589">
        <ele>12.1538</ele>
        <time>2011-03-20T14:54:54Z</time>
      </trkpt>
      <trkpt lat="59.304841" lon="18.4893911">
        <ele>12.1538</ele>
        <time>2011-03-20T14:54:59Z</time>
      </trkpt>
      <trkpt lat="59.3048423" lon="18.4894411">
        <ele>12.1538</ele>
        <time>2011-03-20T14:55:00Z</time>
      </trkpt>
      <trkpt lat="59.3048092" lon="18.489676">
        <ele>12.6344</ele>
        <time>2011-03-20T14:55:04Z</time>
      </trkpt>
      <trkpt lat="59.3047832" lon="18.4898799">
        <ele>11.6732</ele>
        <time>2011-03-20T14:55:08Z</time>
      </trkpt>
      <trkpt lat="59.3047532" lon="18.4901597">
        <ele>12.1538</ele>
        <time>2011-03-20T14:55:14Z</time>
      </trkpt>
      <trkpt lat="59.3047621" lon="18.4903937">
        <ele>13.5958</ele>
        <time>2011-03-20T14:55:19Z</time>
      </trkpt>
      <trkpt lat="59.3047673" lon="18.4905003">
        <ele>14.557</ele>
        <time>2011-03-20T14:55:21Z</time>
      </trkpt>
      <trkpt lat="59.3047501" lon="18.4907925">
        <ele>17.4412</ele>
        <time>2011-03-20T14:55:27Z</time>
      </trkpt>
      <trkpt lat="59.3047352" lon="18.4909531">
        <ele>16.9604</ele>
        <time>2011-03-20T14:55:30Z</time>
      </trkpt>
      <trkpt lat="59.3047311" lon="18.4911598">
        <ele>17.4412</ele>
        <time>2011-03-20T14:55:34Z</time>
      </trkpt>
      <trkpt lat="59.3047201" lon="18.4913651">
        <ele>17.4412</ele>
        <time>2011-03-20T14:55:38Z</time>
      </trkpt>
      <trkpt lat="59.3046828" lon="18.4915799">
        <ele>15.999</ele>
        <time>2011-03-20T14:55:42Z</time>
      </trkpt>
      <trkpt lat="59.304654" lon="18.4918219">
        <ele>15.0377</ele>
        <time>2011-03-20T14:55:47Z</time>
      </trkpt>
      <trkpt lat="59.3046388" lon="18.4920595">
        <ele>15.5184</ele>
        <time>2011-03-20T14:55:52Z</time>
      </trkpt>
      <trkpt lat="59.3046032" lon="18.4922498">
        <ele>15.0377</ele>
        <time>2011-03-20T14:55:56Z</time>
      </trkpt>
      <trkpt lat="59.3045554" lon="18.4925283">
        <ele>15.0377</ele>
        <time>2011-03-20T14:56:02Z</time>
      </trkpt>
      <trkpt lat="59.3045037" lon="18.4927766">
        <ele>15.999</ele>
        <time>2011-03-20T14:56:07Z</time>
      </trkpt>
      <trkpt lat="59.3044574" lon="18.4930048">
        <ele>15.999</ele>
        <time>2011-03-20T14:56:12Z</time>
      </trkpt>
      <trkpt lat="59.3043959" lon="18.4932339">
        <ele>15.5184</ele>
        <time>2011-03-20T14:56:17Z</time>
      </trkpt>
      <trkpt lat="59.3043517" lon="18.4934598">
        <ele>15.999</ele>
        <time>2011-03-20T14:56:22Z</time>
      </trkpt>
      <trkpt lat="59.3042859" lon="18.4936813">
        <ele>15.5184</ele>
        <time>2011-03-20T14:56:27Z</time>
      </trkpt>
      <trkpt lat="59.3041856" lon="18.4939229">
        <ele>13.5958</ele>
        <time>2011-03-20T14:56:33Z</time>
      </trkpt>
      <trkpt lat="59.3041208" lon="18.494139">
        <ele>12.6344</ele>
        <time>2011-03-20T14:56:38Z</time>
      </trkpt>
      <trkpt lat="59.3040669" lon="18.4943911">
        <ele>11.6732</ele>
        <time>2011-03-20T14:56:44Z</time>
      </trkpt>
      <trkpt lat="59.3039953" lon="18.4946538">
        <ele>10.7118</ele>
        <time>2011-03-20T14:56:50Z</time>
      </trkpt>
      <trkpt lat="59.3039141" lon="18.49486">
        <ele>9.75061</ele>
        <time>2011-03-20T14:56:55Z</time>
      </trkpt>
      <trkpt lat="59.3038587" lon="18.4950551">
        <ele>8.78918</ele>
        <time>2011-03-20T14:57:00Z</time>
      </trkpt>
      <trkpt lat="59.3038393" lon="18.4952213">
        <ele>8.30859</ele>
        <time>2011-03-20T14:57:04Z</time>
      </trkpt>
      <trkpt lat="59.3037918" lon="18.4954506">
        <ele>9.75061</ele>
        <time>2011-03-20T14:57:09Z</time>
      </trkpt>
      <trkpt lat="59.3037646" lon="18.4956488">
        <ele>11.1925</ele>
        <time>2011-03-20T14:57:13Z</time>
      </trkpt>
      <trkpt lat="59.3037313" lon="18.4958898">
        <ele>10.2312</ele>
        <time>2011-03-20T14:57:18Z</time>
      </trkpt>
      <trkpt lat="59.3037027" lon="18.4961254">
        <ele>11.1925</ele>
        <time>2011-03-20T14:57:23Z</time>
      </trkpt>
      <trkpt lat="59.3036861" lon="18.4963768">
        <ele>12.1538</ele>
        <time>2011-03-20T14:57:28Z</time>
      </trkpt>
      <trkpt lat="59.3036513" lon="18.4966641">
        <ele>12.6344</ele>
        <time>2011-03-20T14:57:34Z</time>
      </trkpt>
      <trkpt lat="59.3036153" lon="18.4968937">
        <ele>12.6344</ele>
        <time>2011-03-20T14:57:39Z</time>
      </trkpt>
      <trkpt lat="59.3035676" lon="18.4971261">
        <ele>13.1151</ele>
        <time>2011-03-20T14:57:44Z</time>
      </trkpt>
      <trkpt lat="59.3035224" lon="18.4974337">
        <ele>13.5958</ele>
        <time>2011-03-20T14:57:50Z</time>
      </trkpt>
      <trkpt lat="59.3034759" lon="18.4977691">
        <ele>13.1151</ele>
        <time>2011-03-20T14:57:57Z</time>
      </trkpt>
      <trkpt lat="59.3034363" lon="18.4979886">
        <ele>12.6344</ele>
        <time>2011-03-20T14:58:02Z</time>
      </trkpt>
      <trkpt lat="59.3033873" lon="18.4982483">
        <ele>11.6732</ele>
        <time>2011-03-20T14:58:08Z</time>
      </trkpt>
      <trkpt lat="59.3033553" lon="18.4984887">
        <ele>11.1925</ele>
        <time>2011-03-20T14:58:13Z</time>
      </trkpt>
      <trkpt lat="59.3033127" lon="18.4986985">
        <ele>10.2312</ele>
        <time>2011-03-20T14:58:18Z</time>
      </trkpt>
      <trkpt lat="59.3032756" lon="18.4989263">
        <ele>10.2312</ele>
        <time>2011-03-20T14:58:23Z</time>
      </trkpt>
      <trkpt lat="59.3032381" lon="18.4991682">
        <ele>8.78918</ele>
        <time>2011-03-20T14:58:28Z</time>
      </trkpt>
      <trkpt lat="59.3032013" lon="18.4993713">
        <ele>7.82788</ele>
        <time>2011-03-20T14:58:32Z</time>
      </trkpt>
      <trkpt lat="59.3031592" lon="18.4995429">
        <ele>6.86646</ele>
        <time>2011-03-20T14:58:36Z</time>
      </trkpt>
      <trkpt lat="59.3031066" lon="18.4997945">
        <ele>6.86646</ele>
        <time>2011-03-20T14:58:42Z</time>
      </trkpt>
      <trkpt lat="59.303061" lon="18.500015">
        <ele>4.46326</ele>
        <time>2011-03-20T14:58:47Z</time>
      </trkpt>
      <trkpt lat="59.3030194" lon="18.5002741">
        <ele>2.54065</ele>
        <time>2011-03-20T14:58:53Z</time>
      </trkpt>
      <trkpt lat="59.3029793" lon="18.5004798">
        <ele>1.57935</ele>
        <time>2011-03-20T14:58:58Z</time>
      </trkpt>
      <trkpt lat="59.3029569" lon="18.5005684">
        <ele>1.57935</ele>
        <time>2011-03-20T14:59:00Z</time>
      </trkpt>
      <trkpt lat="59.3029318" lon="18.5008233">
        <ele>3.98267</ele>
        <time>2011-03-20T14:59:06Z</time>
      </trkpt>
      <trkpt lat="59.3029112" lon="18.5010666">
        <ele>7.34717</ele>
        <time>2011-03-20T14:59:11Z</time>
      </trkpt>
      <trkpt lat="59.3028627" lon="18.5013258">
        <ele>7.82788</ele>
        <time>2011-03-20T14:59:17Z</time>
      </trkpt>
      <trkpt lat="59.3028268" lon="18.5015395">
        <ele>7.82788</ele>
        <time>2011-03-20T14:59:22Z</time>
      </trkpt>
      <trkpt lat="59.3028075" lon="18.5016924">
        <ele>10.2312</ele>
        <time>2011-03-20T14:59:28Z</time>
      </trkpt>
      <trkpt lat="59.3028051" lon="18.5017312">
        <ele>13.1151</ele>
        <time>2011-03-20T14:59:33Z</time>
      </trkpt>
      <trkpt lat="59.3028015" lon="18.5017433">
        <ele>13.1151</ele>
        <time>2011-03-20T14:59:34Z</time>
      </trkpt>
      <trkpt lat="59.3027092" lon="18.5017717">
        <ele>12.6344</ele>
        <time>2011-03-20T14:59:38Z</time>
      </trkpt>
      <trkpt lat="59.302688" lon="18.501774">
        <ele>12.6344</ele>
        <time>2011-03-20T14:59:39Z</time>
      </trkpt>
      <trkpt lat="59.3026056" lon="18.501811">
        <ele>13.1151</ele>
        <time>2011-03-20T14:59:43Z</time>
      </trkpt>
      <trkpt lat="59.3025419" lon="18.5016703">
        <ele>14.0764</ele>
        <time>2011-03-20T14:59:48Z</time>
      </trkpt>
      <trkpt lat="59.3025151" lon="18.5014914">
        <ele>14.0764</ele>
        <time>2011-03-20T14:59:52Z</time>
      </trkpt>
      <trkpt lat="59.3024718" lon="18.5013242">
        <ele>13.1151</ele>
        <time>2011-03-20T14:59:56Z</time>
      </trkpt>
      <trkpt lat="59.3024462" lon="18.501048">
        <ele>13.5958</ele>
        <time>2011-03-20T15:00:01Z</time>
      </trkpt>
      <trkpt lat="59.3023922" lon="18.5008295">
        <ele>15.999</ele>
        <time>2011-03-20T15:00:06Z</time>
      </trkpt>
      <trkpt lat="59.3023362" lon="18.5006885">
        <ele>15.0377</ele>
        <time>2011-03-20T15:00:10Z</time>
      </trkpt>
      <trkpt lat="59.3023115" lon="18.5005051">
        <ele>14.557</ele>
        <time>2011-03-20T15:00:14Z</time>
      </trkpt>
      <trkpt lat="59.3023094" lon="18.5004491">
        <ele>14.557</ele>
        <time>2011-03-20T15:00:15Z</time>
      </trkpt>
      <trkpt lat="59.3022701" lon="18.5002859">
        <ele>17.4412</ele>
        <time>2011-03-20T15:00:19Z</time>
      </trkpt>
      <trkpt lat="59.3021824" lon="18.5000889">
        <ele>17.9218</ele>
        <time>2011-03-20T15:00:25Z</time>
      </trkpt>
      <trkpt lat="59.3021369" lon="18.4999274">
        <ele>17.4412</ele>
        <time>2011-03-20T15:00:29Z</time>
      </trkpt>
      <trkpt lat="59.3021001" lon="18.4998047">
        <ele>17.9218</ele>
        <time>2011-03-20T15:00:32Z</time>
      </trkpt>
      <trkpt lat="59.3020602" lon="18.4995889">
        <ele>18.8831</ele>
        <time>2011-03-20T15:00:37Z</time>
      </trkpt>
      <trkpt lat="59.3020228" lon="18.4994271">
        <ele>19.8444</ele>
        <time>2011-03-20T15:00:41Z</time>
      </trkpt>
      <trkpt lat="59.3019673" lon="18.4992865">
        <ele>19.8444</ele>
        <time>2011-03-20T15:00:45Z</time>
      </trkpt>
      <trkpt lat="59.3019276" lon="18.4991853">
        <ele>19.8444</ele>
        <time>2011-03-20T15:00:48Z</time>
      </trkpt>
      <trkpt lat="59.3018592" lon="18.4989388">
        <ele>22.7283</ele>
        <time>2011-03-20T15:00:54Z</time>
      </trkpt>
      <trkpt lat="59.3018452" lon="18.4987786">
        <ele>22.2476</ele>
        <time>2011-03-20T15:00:58Z</time>
      </trkpt>
      <trkpt lat="59.3018136" lon="18.4985876">
        <ele>20.325</ele>
        <time>2011-03-20T15:01:03Z</time>
      </trkpt>
      <trkpt lat="59.3018072" lon="18.4985654">
        <ele>19.3638</ele>
        <time>2011-03-20T15:01:04Z</time>
      </trkpt>
      <trkpt lat="59.3017882" lon="18.49854">
        <ele>19.3638</ele>
        <time>2011-03-20T15:01:10Z</time>
      </trkpt>
      <trkpt lat="59.3017901" lon="18.4983983">
        <ele>20.325</ele>
        <time>2011-03-20T15:01:13Z</time>
      </trkpt>
      <trkpt lat="59.3017683" lon="18.4982455">
        <ele>19.8444</ele>
        <time>2011-03-20T15:01:17Z</time>
      </trkpt>
      <trkpt lat="59.3017036" lon="18.4980825">
        <ele>19.8444</ele>
        <time>2011-03-20T15:01:22Z</time>
      </trkpt>
      <trkpt lat="59.3016412" lon="18.4978655">
        <ele>18.8831</ele>
        <time>2011-03-20T15:01:28Z</time>
      </trkpt>
      <trkpt lat="59.3016038" lon="18.4977265">
        <ele>18.4023</ele>
        <time>2011-03-20T15:01:32Z</time>
      </trkpt>
      <trkpt lat="59.301537" lon="18.4975653">
        <ele>19.8444</ele>
        <time>2011-03-20T15:01:37Z</time>
      </trkpt>
      <trkpt lat="59.301526" lon="18.4975433">
        <ele>19.8444</ele>
        <time>2011-03-20T15:01:38Z</time>
      </trkpt>
      <trkpt lat="59.3014164" lon="18.4976291">
        <ele>21.767</ele>
        <time>2011-03-20T15:01:44Z</time>
      </trkpt>
      <trkpt lat="59.3013387" lon="18.4977285">
        <ele>22.7283</ele>
        <time>2011-03-20T15:01:48Z</time>
      </trkpt>
      <trkpt lat="59.3012169" lon="18.4978819">
        <ele>24.651</ele>
        <time>2011-03-20T15:01:54Z</time>
      </trkpt>
      <trkpt lat="59.301154" lon="18.4980131">
        <ele>27.5349</ele>
        <time>2011-03-20T15:01:58Z</time>
      </trkpt>
      <trkpt lat="59.3010861" lon="18.4982079">
        <ele>28.4962</ele>
        <time>2011-03-20T15:02:03Z</time>
      </trkpt>
      <trkpt lat="59.3010312" lon="18.4984103">
        <ele>29.4575</ele>
        <time>2011-03-20T15:02:08Z</time>
      </trkpt>
      <trkpt lat="59.3009889" lon="18.4986663">
        <ele>30.4188</ele>
        <time>2011-03-20T15:02:14Z</time>
      </trkpt>
      <trkpt lat="59.3009542" lon="18.4988786">
        <ele>30.8995</ele>
        <time>2011-03-20T15:02:19Z</time>
      </trkpt>
      <trkpt lat="59.3009088" lon="18.4990766">
        <ele>30.8995</ele>
        <time>2011-03-20T15:02:24Z</time>
      </trkpt>
      <trkpt lat="59.3008789" lon="18.4992395">
        <ele>29.9381</ele>
        <time>2011-03-20T15:02:28Z</time>
      </trkpt>
      <trkpt lat="59.3008315" lon="18.4995173">
        <ele>29.9381</ele>
        <time>2011-03-20T15:02:35Z</time>
      </trkpt>
      <trkpt lat="59.300785" lon="18.4997615">
        <ele>28.9769</ele>
        <time>2011-03-20T15:02:41Z</time>
      </trkpt>
      <trkpt lat="59.3007406" lon="18.5000204">
        <ele>30.4188</ele>
        <time>2011-03-20T15:02:47Z</time>
      </trkpt>
      <trkpt lat="59.3006814" lon="18.5002608">
        <ele>30.8995</ele>
        <time>2011-03-20T15:02:53Z</time>
      </trkpt>
      <trkpt lat="59.3006429" lon="18.5005203">
        <ele>32.8223</ele>
        <time>2011-03-20T15:02:59Z</time>
      </trkpt>
      <trkpt lat="59.3006019" lon="18.5007626">
        <ele>33.3029</ele>
        <time>2011-03-20T15:03:04Z</time>
      </trkpt>
      <trkpt lat="59.3005595" lon="18.5010361">
        <ele>34.7449</ele>
        <time>2011-03-20T15:03:10Z</time>
      </trkpt>
      <trkpt lat="59.3005339" lon="18.5012735">
        <ele>36.6675</ele>
        <time>2011-03-20T15:03:15Z</time>
      </trkpt>
      <trkpt lat="59.3004771" lon="18.5014773">
        <ele>37.6287</ele>
        <time>2011-03-20T15:03:20Z</time>
      </trkpt>
      <trkpt lat="59.3004383" lon="18.5017182">
        <ele>38.5901</ele>
        <time>2011-03-20T15:03:25Z</time>
      </trkpt>
      <trkpt lat="59.3003958" lon="18.5019893">
        <ele>39.5513</ele>
        <time>2011-03-20T15:03:31Z</time>
      </trkpt>
      <trkpt lat="59.3003555" lon="18.5022417">
        <ele>40.0321</ele>
        <time>2011-03-20T15:03:36Z</time>
      </trkpt>
      <trkpt lat="59.3003044" lon="18.5025206">
        <ele>40.0321</ele>
        <time>2011-03-20T15:03:42Z</time>
      </trkpt>
      <trkpt lat="59.3002393" lon="18.502791">
        <ele>39.5513</ele>
        <time>2011-03-20T15:03:48Z</time>
      </trkpt>
      <trkpt lat="59.3001734" lon="18.5030373">
        <ele>39.0707</ele>
        <time>2011-03-20T15:03:54Z</time>
      </trkpt>
      <trkpt lat="59.3001095" lon="18.5032072">
        <ele>39.5513</ele>
        <time>2011-03-20T15:03:58Z</time>
      </trkpt>
      <trkpt lat="59.3000389" lon="18.503359">
        <ele>36.1868</ele>
        <time>2011-03-20T15:04:02Z</time>
      </trkpt>
      <trkpt lat="59.299967" lon="18.5036005">
        <ele>36.6675</ele>
        <time>2011-03-20T15:04:07Z</time>
      </trkpt>
      <trkpt lat="59.2999136" lon="18.5038039">
        <ele>36.1868</ele>
        <time>2011-03-20T15:04:11Z</time>
      </trkpt>
      <trkpt lat="59.2998279" lon="18.5040744">
        <ele>33.7834</ele>
        <time>2011-03-20T15:04:17Z</time>
      </trkpt>
      <trkpt lat="59.2997802" lon="18.5042435">
        <ele>33.3029</ele>
        <time>2011-03-20T15:04:21Z</time>
      </trkpt>
      <trkpt lat="59.2997317" lon="18.5044745">
        <ele>33.7834</ele>
        <time>2011-03-20T15:04:26Z</time>
      </trkpt>
      <trkpt lat="59.2996726" lon="18.5046918">
        <ele>31.8607</ele>
        <time>2011-03-20T15:04:31Z</time>
      </trkpt>
      <trkpt lat="59.299583" lon="18.5049361">
        <ele>29.4575</ele>
        <time>2011-03-20T15:04:37Z</time>
      </trkpt>
      <trkpt lat="59.2994713" lon="18.5051386">
        <ele>28.9769</ele>
        <time>2011-03-20T15:04:42Z</time>
      </trkpt>
      <trkpt lat="59.2993526" lon="18.5052857">
        <ele>29.9381</ele>
        <time>2011-03-20T15:04:47Z</time>
      </trkpt>
      <trkpt lat="59.2992588" lon="18.505387">
        <ele>28.9769</ele>
        <time>2011-03-20T15:04:51Z</time>
      </trkpt>
      <trkpt lat="59.2991999" lon="18.5056206">
        <ele>28.9769</ele>
        <time>2011-03-20T15:04:56Z</time>
      </trkpt>
      <trkpt lat="59.2992064" lon="18.5057821">
        <ele>28.0155</ele>
        <time>2011-03-20T15:04:59Z</time>
      </trkpt>
      <trkpt lat="59.2992332" lon="18.5061421">
        <ele>27.0543</ele>
        <time>2011-03-20T15:05:04Z</time>
      </trkpt>
      <trkpt lat="59.2992778" lon="18.5065129">
        <ele>25.1317</ele>
        <time>2011-03-20T15:05:09Z</time>
      </trkpt>
      <trkpt lat="59.2992948" lon="18.5067182">
        <ele>23.6896</ele>
        <time>2011-03-20T15:05:13Z</time>
      </trkpt>
      <trkpt lat="59.2993123" lon="18.5069963">
        <ele>23.209</ele>
        <time>2011-03-20T15:05:17Z</time>
      </trkpt>
      <trkpt lat="59.2993183" lon="18.5072576">
        <ele>23.209</ele>
        <time>2011-03-20T15:05:20Z</time>
      </trkpt>
    </trkseg>
  </trk>
</gpx>